createdAt,value
2019-01-29T00:02:02.684Z,3.80
2019-01-29T00:04:51.488Z,5.90
2019-01-29T00:07:40.278Z,3.50
2019-01-29T00:10:29.076Z,4.00
2019-01-29T00:13:17.857Z,3.53
2019-01-29T00:16:06.734Z,4.40
2019-01-29T00:19:03.250Z,3.60
2019-01-29T00:21:52.051Z,2.77
2019-01-29T00:24:40.839Z,4.87
2019-01-29T00:27:29.644Z,4.07
2019-01-29T00:30:37.619Z,3.07
2019-01-29T00:33:26.421Z,3.70
2019-01-29T00:36:15.206Z,2.43
2019-01-29T00:42:19.241Z,3.33
2019-01-29T00:45:28.947Z,4.13
2019-01-29T00:48:17.731Z,3.83
2019-01-29T00:51:06.605Z,5.60
2019-01-29T00:53:55.458Z,3.70
2019-01-29T00:56:44.287Z,6.37
2019-01-29T00:59:33.053Z,8.30
2019-01-29T01:02:21.863Z,5.60
2019-01-29T01:05:03.292Z,5.30
2019-01-29T01:07:52.098Z,4.63
2019-01-29T01:10:40.882Z,3.07
2019-01-29T01:13:29.692Z,5.60
2019-01-29T01:16:18.475Z,3.43
2019-01-29T01:19:07.359Z,5.00
2019-01-29T01:21:56.153Z,3.57
2019-01-29T01:24:44.964Z,5.37
2019-01-29T01:31:02.151Z,3.10
2019-01-29T01:33:51.207Z,5.67
2019-01-29T01:36:40.014Z,7.10
2019-01-29T01:39:28.802Z,5.53
2019-01-29T01:42:17.604Z,9.90
2019-01-29T01:45:27.303Z,6.50
2019-01-29T01:48:35.128Z,4.90
2019-01-29T01:51:23.907Z,3.57
2019-01-29T01:54:12.705Z,3.93
2019-01-29T01:57:01.487Z,3.77
2019-01-29T01:59:50.295Z,5.23
2019-01-29T02:02:39.079Z,2.20
2019-01-29T02:05:20.887Z,5.43
2019-01-29T02:08:09.755Z,8.65
2019-01-29T02:10:58.588Z,3.27
2019-01-29T02:13:47.445Z,3.93
2019-01-29T02:19:43.981Z,4.27
2019-01-29T02:22:32.766Z,3.70
2019-01-29T02:25:21.571Z,3.80
2019-01-29T02:28:10.377Z,4.30
2019-01-29T02:30:59.187Z,3.60
2019-01-29T02:33:47.975Z,2.75
2019-01-29T02:36:36.785Z,3.57
2019-01-29T02:39:25.565Z,3.00
2019-01-29T02:42:14.377Z,3.43
2019-01-29T02:45:03.187Z,4.20
2019-01-29T02:47:51.977Z,4.60
2019-01-29T02:50:40.783Z,5.23
2019-01-29T02:53:29.577Z,4.53
2019-01-29T02:56:37.411Z,4.10
2019-01-29T02:59:26.202Z,3.90
2019-01-29T03:02:15.004Z,2.97
2019-01-29T03:04:57.048Z,3.43
2019-01-29T03:07:45.926Z,4.10
2019-01-29T03:10:34.732Z,3.83
2019-01-29T03:13:23.525Z,3.30
2019-01-29T03:16:12.330Z,4.30
2019-01-29T03:22:08.983Z,3.33
2019-01-29T03:24:57.892Z,6.53
2019-01-29T03:27:46.694Z,5.47
2019-01-29T03:30:35.482Z,5.37
2019-01-29T03:33:24.308Z,3.22
2019-01-29T03:36:13.135Z,5.13
2019-01-29T03:39:01.925Z,3.63
2019-01-29T03:41:50.731Z,3.90
2019-01-29T03:44:39.513Z,4.20
2019-01-29T03:47:28.339Z,8.20
2019-01-29T03:50:38.031Z,4.70
2019-01-29T03:53:26.851Z,4.57
2019-01-29T03:56:15.641Z,5.05
2019-01-29T03:59:04.590Z,4.65
2019-01-29T04:01:53.407Z,3.53
2019-01-29T04:04:34.556Z,4.65
2019-01-29T04:07:23.426Z,3.37
2019-01-29T04:10:33.121Z,5.08
2019-01-29T04:13:21.933Z,2.97
2019-01-29T04:16:10.723Z,6.20
2019-01-29T04:18:59.542Z,4.65
2019-01-29T04:21:48.403Z,3.40
2019-01-29T04:27:31.120Z,4.80
2019-01-29T04:30:40.818Z,5.07
2019-01-29T04:33:29.621Z,3.70
2019-01-29T04:36:18.418Z,4.83
2019-01-29T04:39:07.970Z,3.60
2019-01-29T04:41:56.826Z,3.00
2019-01-29T04:44:45.661Z,4.15
2019-01-29T04:47:34.445Z,4.73
2019-01-29T04:50:23.320Z,3.53
2019-01-29T04:53:12.116Z,5.90
2019-01-29T04:56:00.911Z,6.92
2019-01-29T04:58:49.705Z,7.13
2019-01-29T05:01:38.513Z,6.30
2019-01-29T05:04:27.303Z,9.23
2019-01-29T05:07:09.372Z,5.40
2019-01-29T05:09:58.161Z,7.17
2019-01-29T05:12:46.972Z,5.67
2019-01-29T05:15:35.752Z,7.60
2019-01-29T05:18:24.567Z,6.70
2019-01-29T05:21:13.364Z,6.83
2019-01-29T05:24:06.847Z,4.77
2019-01-29T05:26:52.674Z,5.85
2019-01-29T05:29:41.467Z,4.73
2019-01-29T05:32:30.268Z,5.25
2019-01-29T05:35:19.060Z,4.77
2019-01-29T05:38:07.855Z,4.80
2019-01-29T05:40:56.641Z,5.00
2019-01-29T05:43:45.449Z,5.92
2019-01-29T05:49:29.359Z,7.07
2019-01-29T05:52:18.150Z,10.37
2019-01-29T05:55:27.864Z,8.30
2019-01-29T05:58:16.654Z,11.57
2019-01-29T06:01:05.465Z,10.50
2019-01-29T06:03:46.989Z,10.87
2019-01-29T06:06:35.880Z,6.90
2019-01-29T06:09:24.708Z,7.37
2019-01-29T06:12:13.540Z,8.63
2019-01-29T06:15:02.336Z,6.77
2019-01-29T06:17:51.135Z,6.30
2019-01-29T06:20:39.926Z,7.03
2019-01-29T06:23:29.061Z,8.40
2019-01-29T06:26:17.847Z,9.83
2019-01-29T06:29:06.653Z,9.30
2019-01-29T06:31:55.449Z,5.43
2019-01-29T06:34:44.264Z,5.90
2019-01-29T06:37:33.054Z,8.70
2019-01-29T06:40:42.825Z,6.57
2019-01-29T06:43:31.628Z,9.20
2019-01-29T06:46:20.414Z,11.10
2019-01-29T06:49:09.299Z,8.73
2019-01-29T06:51:58.093Z,6.80
2019-01-29T06:54:46.969Z,8.98
2019-01-29T06:57:35.754Z,10.35
2019-01-29T07:00:24.454Z,11.10
2019-01-29T07:03:13.242Z,7.60
2019-01-29T07:06:02.041Z,7.87
2019-01-29T07:08:50.839Z,9.45
2019-01-29T07:11:39.651Z,10.00
2019-01-29T07:14:28.445Z,13.30
2019-01-29T07:20:13.495Z,11.80
2019-01-29T07:23:02.286Z,12.30
2019-01-29T07:25:51.160Z,9.70
2019-01-29T07:28:39.952Z,9.70
2019-01-29T07:31:28.753Z,7.50
2019-01-29T07:34:17.540Z,9.67
2019-01-29T07:37:06.345Z,7.47
2019-01-29T07:39:55.152Z,10.00
2019-01-29T07:42:43.960Z,7.30
2019-01-29T07:45:32.777Z,8.10
2019-01-29T07:48:21.583Z,8.20
2019-01-29T07:51:10.442Z,10.10
2019-01-29T07:53:59.251Z,12.33
2019-01-29T07:56:48.050Z,8.78
2019-01-29T07:59:36.843Z,6.83
2019-01-29T08:02:18.566Z,9.70
2019-01-29T08:05:28.284Z,6.80
2019-01-29T08:08:17.091Z,7.40
2019-01-29T08:11:05.879Z,10.97
2019-01-29T08:13:54.684Z,6.60
2019-01-29T08:16:43.463Z,9.80
2019-01-29T08:19:32.266Z,8.43
2019-01-29T08:22:21.063Z,11.13
2019-01-29T08:25:30.009Z,6.90
2019-01-29T08:28:18.815Z,10.60
2019-01-29T08:31:07.600Z,6.27
2019-01-29T08:33:56.407Z,6.27
2019-01-29T08:36:45.192Z,6.80
2019-01-29T08:39:34.006Z,8.57
2019-01-29T08:42:41.813Z,7.97
2019-01-29T08:45:30.751Z,7.43
2019-01-29T08:48:19.539Z,8.67
2019-01-29T08:51:08.344Z,7.87
2019-01-29T08:53:57.141Z,8.70
2019-01-29T08:56:45.948Z,7.30
2019-01-29T08:59:34.834Z,8.33
2019-01-29T09:02:16.151Z,10.03
2019-01-29T09:05:26.196Z,9.80
2019-01-29T09:08:15.005Z,9.50
2019-01-29T09:11:03.792Z,8.03
2019-01-29T09:13:52.600Z,8.20
2019-01-29T09:16:41.491Z,7.27
2019-01-29T09:19:30.291Z,7.45
2019-01-29T09:22:19.105Z,8.63
2019-01-29T09:25:28.795Z,7.23
2019-01-29T09:28:36.628Z,7.90
2019-01-29T09:31:25.414Z,8.90
2019-01-29T09:34:14.219Z,8.15
2019-01-29T09:37:03.013Z,7.90
2019-01-29T09:39:51.815Z,9.70
2019-01-29T09:42:40.619Z,8.80
2019-01-29T09:45:29.492Z,8.10
2019-01-29T09:51:46.689Z,7.63
2019-01-29T09:54:35.474Z,8.03
2019-01-29T09:57:24.349Z,9.87
2019-01-29T10:00:34.083Z,9.03
2019-01-29T10:03:14.257Z,8.47
2019-01-29T10:06:03.098Z,7.03
2019-01-29T10:08:51.960Z,6.13
2019-01-29T10:11:40.831Z,6.77
2019-01-29T10:14:29.679Z,13.77
2019-01-29T10:20:28.242Z,6.17
2019-01-29T10:23:17.076Z,10.10
2019-01-29T10:26:05.952Z,6.73
2019-01-29T10:28:54.781Z,8.23
2019-01-29T10:31:43.687Z,9.47
2019-01-29T10:34:32.599Z,14.60
2019-01-29T10:37:21.491Z,10.40
2019-01-29T10:40:31.262Z,8.55
2019-01-29T10:43:20.130Z,9.33
2019-01-29T10:49:16.678Z,7.30
2019-01-29T10:52:05.735Z,7.50
2019-01-29T10:54:54.548Z,6.30
2019-01-29T10:57:43.583Z,6.70
2019-01-29T11:00:53.290Z,7.55
2019-01-29T11:03:34.702Z,5.80
2019-01-29T11:06:23.485Z,6.60
2019-01-29T11:09:12.659Z,6.07
2019-01-29T11:12:01.470Z,9.23
2019-01-29T11:14:50.259Z,6.57
2019-01-29T11:17:39.066Z,8.37
2019-01-29T11:20:27.858Z,6.73
2019-01-29T11:23:16.656Z,9.50
2019-01-29T11:26:05.886Z,8.90
2019-01-29T11:28:54.758Z,7.97
2019-01-29T11:31:43.566Z,8.67
2019-01-29T11:34:32.351Z,17.00
2019-01-29T11:37:21.169Z,9.83
2019-01-29T11:40:30.255Z,8.20
2019-01-29T11:43:19.058Z,9.20
2019-01-29T11:46:08.018Z,11.90
2019-01-29T11:48:56.835Z,11.20
2019-01-29T11:51:45.627Z,9.23
2019-01-29T11:54:27.366Z,18.93
2019-01-29T11:57:16.159Z,10.20
2019-01-29T12:00:44.910Z,11.23
2019-01-29T12:03:33.694Z,8.20
2019-01-29T12:06:22.517Z,7.90
2019-01-29T12:09:11.382Z,10.53
2019-01-29T12:12:00.205Z,11.10
2019-01-29T12:14:49.128Z,11.37
2019-01-29T12:17:37.907Z,10.08
2019-01-29T12:20:26.778Z,9.27
2019-01-29T12:23:15.656Z,9.53
2019-01-29T12:26:12.689Z,8.70
2019-01-29T12:28:55.127Z,7.60
2019-01-29T12:31:44.098Z,7.00
2019-01-29T12:34:32.900Z,13.87
2019-01-29T12:37:21.697Z,8.73
2019-01-29T12:40:31.404Z,6.27
2019-01-29T12:43:20.219Z,10.15
2019-01-29T12:46:09.072Z,9.07
2019-01-29T12:48:57.874Z,8.30
2019-01-29T12:54:48.676Z,8.20
2019-01-29T12:57:37.476Z,7.13
2019-01-29T13:03:25.524Z,9.47
2019-01-29T13:06:14.357Z,7.17
2019-01-29T13:11:59.032Z,5.63
2019-01-29T13:14:47.893Z,7.43
2019-01-29T13:17:36.683Z,9.88
2019-01-29T13:20:25.529Z,8.07
2019-01-29T13:23:14.343Z,8.07
2019-01-29T13:26:03.124Z,7.20
2019-01-29T13:28:51.938Z,8.50
2019-01-29T13:31:40.732Z,6.80
2019-01-29T13:34:29.558Z,11.70
2019-01-29T13:37:18.363Z,8.07
2019-01-29T13:43:35.887Z,8.85
2019-01-29T13:46:15.563Z,6.50
2019-01-29T13:49:04.371Z,7.60
2019-01-29T13:51:53.169Z,6.80
2019-01-29T13:54:41.975Z,6.97
2019-01-29T13:57:30.802Z,10.00
2019-01-29T14:00:40.507Z,6.30
2019-01-29T14:03:29.313Z,5.30
2019-01-29T14:06:18.117Z,6.20
2019-01-29T14:12:02.991Z,8.20
2019-01-29T14:14:51.775Z,8.40
2019-01-29T14:17:40.587Z,7.00
2019-01-29T14:20:29.376Z,7.80
2019-01-29T14:23:18.182Z,5.70
2019-01-29T14:26:07.046Z,5.60
2019-01-29T14:28:55.841Z,5.63
2019-01-29T14:31:44.650Z,5.47
2019-01-29T14:34:33.459Z,11.45
2019-01-29T14:37:42.461Z,4.97
2019-01-29T14:43:47.790Z,4.30
2019-01-29T14:46:29.149Z,4.10
2019-01-29T14:49:17.945Z,5.17
2019-01-29T14:52:06.824Z,5.30
2019-01-29T14:54:55.607Z,4.73
2019-01-29T14:57:44.418Z,5.77
2019-01-29T15:00:54.167Z,4.60
2019-01-29T15:03:42.924Z,3.47
2019-01-29T15:06:32.920Z,6.70
2019-01-29T15:09:22.239Z,3.90
2019-01-29T15:12:11.111Z,4.07
2019-01-29T15:18:26.744Z,4.40
2019-01-29T15:24:23.295Z,4.50
2019-01-29T15:27:12.076Z,5.00
2019-01-29T15:30:00.926Z,8.50
2019-01-29T15:32:49.704Z,5.43
2019-01-29T15:35:38.583Z,3.63
2019-01-29T15:38:27.364Z,5.90
2019-01-29T15:41:16.173Z,5.97
2019-01-29T15:44:05.027Z,5.30
2019-01-29T15:46:51.023Z,7.03
2019-01-29T15:49:39.825Z,6.67
2019-01-29T15:52:28.924Z,5.37
2019-01-29T15:55:18.078Z,9.80
2019-01-29T16:01:22.394Z,8.63
2019-01-29T16:04:11.178Z,8.57
2019-01-29T16:06:59.994Z,5.80
2019-01-29T16:09:48.784Z,5.90
2019-01-29T16:12:37.588Z,5.10
2019-01-29T16:18:42.510Z,5.47
2019-01-29T16:21:31.359Z,7.30
2019-01-29T16:24:20.143Z,7.58
2019-01-29T16:27:08.948Z,7.77
2019-01-29T16:29:58.050Z,7.30
2019-01-29T16:32:46.843Z,6.27
2019-01-29T16:38:51.819Z,6.37
2019-01-29T16:41:33.869Z,5.33
2019-01-29T16:44:22.684Z,8.90
2019-01-29T16:47:11.469Z,11.40
2019-01-29T16:50:00.276Z,8.77
2019-01-29T16:52:49.086Z,8.20
2019-01-29T16:55:38.062Z,7.35
2019-01-29T16:58:26.904Z,7.83
2019-01-29T17:04:30.500Z,13.90
2019-01-29T17:07:19.284Z,6.80
2019-01-29T17:10:28.313Z,7.97
2019-01-29T17:13:17.126Z,8.33
2019-01-29T17:16:05.945Z,8.87
2019-01-29T17:18:54.740Z,13.03
2019-01-29T17:21:43.543Z,11.65
2019-01-29T17:24:32.331Z,18.23
2019-01-29T17:27:21.147Z,10.23
2019-01-29T17:30:02.373Z,9.27
2019-01-29T17:32:51.186Z,9.77
2019-01-29T17:36:00.899Z,7.90
2019-01-29T17:38:49.706Z,11.77
2019-01-29T17:41:31.702Z,10.43
2019-01-29T17:44:20.491Z,11.10
2019-01-29T17:47:09.304Z,10.80
2019-01-29T17:49:58.104Z,9.20
2019-01-29T17:52:46.915Z,11.43
2019-01-29T17:59:04.705Z,10.83
2019-01-29T18:05:22.055Z,17.60
2019-01-29T18:08:10.868Z,18.98
2019-01-29T18:10:59.669Z,12.33
2019-01-29T18:13:48.459Z,9.40
2019-01-29T18:16:37.296Z,13.40
2019-01-29T18:19:26.106Z,11.83
2019-01-29T18:22:14.934Z,13.87
2019-01-29T18:28:32.194Z,12.90
2019-01-29T18:31:20.982Z,11.70
2019-01-29T18:34:09.850Z,14.33
2019-01-29T18:36:58.644Z,14.30
2019-01-29T18:39:47.830Z,13.73
2019-01-29T18:42:30.495Z,14.57
2019-01-29T18:45:20.063Z,14.70
2019-01-29T18:48:08.921Z,17.20
2019-01-29T18:50:57.822Z,16.97
2019-01-29T18:53:46.810Z,16.97
2019-01-29T18:56:36.126Z,15.63
2019-01-29T18:59:25.422Z,15.55
2019-01-29T19:02:14.669Z,14.07
2019-01-29T19:14:43.247Z,15.73
2019-01-29T19:27:38.619Z,13.20
2019-01-29T19:30:49.168Z,14.20
2019-01-29T19:33:31.600Z,13.13
2019-01-29T19:42:55.523Z,14.40
2019-01-29T19:52:29.152Z,13.40
2019-01-29T19:58:47.700Z,12.27
2019-01-29T20:05:12.081Z,15.43
2019-01-29T20:17:34.381Z,14.27
2019-01-29T20:26:50.879Z,12.20
2019-01-29T20:32:52.909Z,11.07
2019-01-29T20:35:53.777Z,15.60
2019-01-29T20:49:03.669Z,16.10
2019-01-29T21:07:38.021Z,13.10
2019-01-29T21:11:01.242Z,11.87
2019-01-29T21:13:57.958Z,13.00
2019-01-29T21:23:38.783Z,11.57
2019-01-29T21:29:26.484Z,11.17
2019-01-29T21:32:08.758Z,11.53
2019-01-29T21:34:57.755Z,19.27
2019-01-29T21:38:05.781Z,15.63
2019-01-29T21:40:54.676Z,11.93
2019-01-29T21:43:43.566Z,12.97
2019-01-29T21:46:32.409Z,15.60
2019-01-29T21:49:21.214Z,12.17
2019-01-29T21:52:10.054Z,13.30
2019-01-29T21:54:58.858Z,12.07
2019-01-29T21:57:47.761Z,10.28
2019-01-29T22:00:57.471Z,8.47
2019-01-29T22:03:46.300Z,12.23
2019-01-29T22:06:35.095Z,9.50
2019-01-29T22:09:23.967Z,11.50
2019-01-29T22:12:12.788Z,12.50
2019-01-29T22:15:01.608Z,12.70
2019-01-29T22:17:50.409Z,10.73
2019-01-29T22:20:39.294Z,12.40
2019-01-29T22:23:28.110Z,13.70
2019-01-29T22:26:16.917Z,10.37
2019-01-29T22:29:05.733Z,12.23
2019-01-29T22:31:47.293Z,12.53
2019-01-29T22:34:36.110Z,10.43
2019-01-29T22:37:24.911Z,12.65
2019-01-29T22:40:34.630Z,10.80
2019-01-29T22:43:23.429Z,10.13
2019-01-29T22:46:12.243Z,11.03
2019-01-29T22:49:01.040Z,12.47
2019-01-29T22:51:49.853Z,13.63
2019-01-29T22:54:38.643Z,11.83
2019-01-29T22:57:27.471Z,10.70
2019-01-29T23:00:56.830Z,13.60
2019-01-29T23:03:45.646Z,9.97
2019-01-29T23:06:55.354Z,10.82
2019-01-29T23:10:03.263Z,12.10
2019-01-29T23:12:52.137Z,12.18
2019-01-29T23:18:35.761Z,14.17
2019-01-29T23:21:24.586Z,13.25
2019-01-29T23:27:21.146Z,11.30
2019-01-29T23:30:29.339Z,13.08
2019-01-29T23:33:10.992Z,13.23
2019-01-29T23:35:59.798Z,12.40
2019-01-29T23:38:48.681Z,11.20
2019-01-29T23:41:37.539Z,12.10
2019-01-29T23:44:26.484Z,16.20
2019-01-29T23:47:15.300Z,12.80
2019-01-29T23:53:32.803Z,11.23
2019-01-29T23:56:21.680Z,13.00
2019-01-29T23:59:10.493Z,12.77
